Leoma, TN (38468)

10:12 AM CDT die 30o September, anno 2016 (GMT -0500)
WLX Radio Studios | | Change Station

Elev 932 ft 35.25 °N, 87.33 °W | Updated 5 minutes ago

Overcast
Aequaliter Nubila
53.9 °F
Feels Like 53.9 °F
N
0.0
Ventus Variabilis Ventus from Magis Zephyrus quam Auster
Gusts 0.0 mph

Hodie
High -- | Low -- °F
--% Chance of Precip.
Yesterday
High -- | Low -- °F
Precip. -- in
Pressio 30.13 in
Visibilitas 8.0 milia passuum
Clouds Aequaliter Nubila 900 ft
Frigus in quo Ros apparet 53 °F
Umor 97%
Rainfall 0.00 in
Snow Depth Not available.
6:43 AM 6:33 PM
Waning Crescent, 0% visible
METAR KMSL 301453Z AUTO 33005KT 8SM OVC009 15/12 A3013 RMK AO2 SLP201 T01500117 53012
Pressio 30.13 in
Visibilitas 8.0 milia passuum
Clouds Aequaliter Nubila 900 ft
Frigus in quo Ros apparet 53 °F
Umor 97%
Rainfall 0.00 in
Snow Depth Not available.
6:43 AM 6:33 PM
Waning Crescent, 0% visible
METAR KMSL 301453Z AUTO 33005KT 8SM OVC009 15/12 A3013 RMK AO2 SLP201 T01500117 53012

10-Day Weather Forecast

Almanac

Astronomy

Sep. 30, 2016 Rise Set
Actual Time
Civil Twilight
Nautical Twilight
Astronomical Twilight
Moon
Length Of Visible Light
Length of Day
Tomorrow will be .
, % of the Moon is Illuminated

Today's Extremes

State Highs State Lows

Community

WunderPhotos

Upload Photos

1,942,736 photos uploaded!

WunderBlog® & News

Nearby

Air Quality

  Air Quality AQ Index Pollutant
Not available.

Snow Depth

Station Depth Elevation

Earthquake Activity

City Distance Mag. Time & Date
Minimum magnitude displayed is 2.5.

Coastal Water Temperatures

Locus Calor

Stations

Nearby Weather Stations

Station Location Temp Frigus Venti Frigus in quo Ros apparet Umor Ventus Precip. Elev Renovata Type
                   

Watches & Warnings

There are currently no watches in effect.